Time;durP1;ratioP1;P1;durP2;ratioP2;P2;SDS_P1;SDS_P2;PMS_P1;PMS_P2;Temp;Humidity;BMP_temperature;BMP_pressure;BME280_temperature;BME280_humidity;BME280_pressure;Samples;Min_cycle;Max_cycle;Signal;HPM_P1;HPM_P2
2021/11/26 00:01:06;;;;;;;37.87;20.53;;;6.10;99.90;;;;;;5075393;28;20451;-72
2021/11/26 00:03:32;;;;;;;43.47;21.87;;;6.10;99.90;;;;;;5077775;28;20415;-72
2021/11/26 00:05:58;;;;;;;37.67;20.53;;;6.10;99.90;;;;;;5104569;28;20173;-72
2021/11/26 00:08:24;;;;;;;34.10;18.67;;;6.10;99.90;;;;;;5097495;28;20450;-73
2021/11/26 00:10:49;;;;;;;33.63;19.30;;;6.10;99.90;;;;;;5097679;28;21006;-73
2021/11/26 00:13:16;;;;;;;41.73;21.63;;;6.20;99.90;;;;;;5095799;28;20165;-73
2021/11/26 00:15:42;;;;;;;44.33;22.17;;;6.10;99.90;;;;;;5093755;28;20185;-72
2021/11/26 00:18:16;;;;;;;36.60;21.03;;;6.20;99.90;;;;;;5095055;28;20483;-73
2021/11/26 00:20:42;;;;;;;37.80;21.77;;;6.20;99.90;;;;;;5095203;28;20966;-72
2021/11/26 00:23:08;;;;;;;44.03;22.00;;;6.30;99.90;;;;;;5103993;28;20403;-73
2021/11/26 00:25:35;;;;;;;37.17;20.20;;;6.40;99.90;;;;;;5093154;28;20423;-73
2021/11/26 00:28:01;;;;;;;40.00;21.50;;;6.40;99.90;;;;;;5093260;28;20573;-72
2021/11/26 00:30:26;;;;;;;42.13;20.37;;;6.40;99.90;;;;;;5087639;28;20447;-72
2021/11/26 00:32:52;;;;;;;38.80;20.10;;;6.50;99.90;;;;;;5076664;28;20942;-72
2021/11/26 00:35:17;;;;;;;33.40;19.83;;;6.50;99.90;;;;;;5094440;28;20517;-72
2021/11/26 00:37:44;;;;;;;35.30;20.50;;;6.40;99.90;;;;;;5075315;28;20178;-72
2021/11/26 00:40:09;;;;;;;36.03;19.27;;;6.40;99.90;;;;;;5073162;28;20173;-72
2021/11/26 00:42:35;;;;;;;36.67;20.00;;;6.40;99.90;;;;;;5091894;28;20438;-72
2021/11/26 00:45:01;;;;;;;31.13;19.27;;;6.30;99.90;;;;;;5092599;28;20473;-72
2021/11/26 00:47:26;;;;;;;43.37;22.93;;;6.30;99.90;;;;;;5093004;28;20188;-72
2021/11/26 00:49:53;;;;;;;34.40;21.10;;;6.30;99.90;;;;;;5093297;28;20575;-73
2021/11/26 00:52:19;;;;;;;34.80;19.93;;;6.20;99.90;;;;;;5091202;28;20204;-72
2021/11/26 00:54:44;;;;;;;39.20;19.90;;;6.20;99.90;;;;;;5092785;28;20865;-72
2021/11/26 00:57:10;;;;;;;35.37;19.53;;;6.20;99.90;;;;;;5092907;28;20410;-72
2021/11/26 00:59:37;;;;;;;33.97;19.77;;;6.30;99.90;;;;;;5092667;28;20435;-72
2021/11/26 01:02:04;;;;;;;37.30;20.80;;;6.30;99.90;;;;;;5089757;28;20220;-72
2021/11/26 01:04:30;;;;;;;39.80;22.87;;;6.30;99.90;;;;;;5071376;28;20419;-72
2021/11/26 01:06:56;;;;;;;44.23;23.03;;;6.30;99.90;;;;;;5072187;28;20451;-72
2021/11/26 01:09:22;;;;;;;41.70;20.67;;;6.30;99.90;;;;;;5072700;28;20181;-72
2021/11/26 01:11:47;;;;;;;49.60;23.67;;;6.30;99.90;;;;;;5072287;28;20201;-72
2021/11/26 01:14:13;;;;;;;38.90;22.37;;;6.20;99.90;;;;;;5073493;28;20506;-72
2021/11/26 01:16:38;;;;;;;47.87;22.93;;;6.10;99.90;;;;;;5070484;28;20196;-72
2021/11/26 01:19:04;;;;;;;50.43;23.53;;;5.90;99.90;;;;;;5072568;28;20180;-72
2021/11/26 01:21:30;;;;;;;45.37;22.63;;;6.00;99.90;;;;;;5072320;28;20200;-73
2021/11/26 01:23:55;;;;;;;51.13;26.50;;;6.00;99.90;;;;;;5074701;28;20231;-72
2021/11/26 01:26:21;;;;;;;47.07;24.10;;;6.10;99.90;;;;;;5072903;28;20200;-72
2021/11/26 01:28:49;;;;;;;51.60;23.97;;;6.10;99.90;;;;;;5071985;28;20586;-72
2021/11/26 01:31:15;;;;;;;40.70;22.50;;;6.10;99.90;;;;;;5075522;28;20562;-72
2021/11/26 01:33:41;;;;;;;44.70;23.80;;;6.10;99.90;;;;;;5078174;28;20427;-72
2021/11/26 01:36:07;;;;;;;44.27;23.67;;;6.10;99.90;;;;;;5072413;28;20427;-71
2021/11/26 01:38:32;;;;;;;43.73;24.20;;;6.20;99.90;;;;;;5085712;28;20431;-71
2021/11/26 01:40:59;;;;;;;43.37;25.50;;;6.20;99.90;;;;;;5092929;28;20835;-71
2021/11/26 01:43:25;;;;;;;50.33;26.37;;;6.20;99.90;;;;;;5090233;28;20181;-71
2021/11/26 01:46:01;;;;;;;44.20;23.83;;;6.30;99.90;;;;;;5072901;28;20764;-71
2021/11/26 01:48:26;;;;;;;54.00;27.60;;;6.30;99.90;;;;;;5072319;28;20165;-72
2021/11/26 01:50:54;;;;;;;45.20;25.70;;;6.40;99.90;;;;;;5072074;28;20454;-71
2021/11/26 01:53:20;;;;;;;43.40;23.97;;;6.40;99.90;;;;;;5072119;28;20164;-72
2021/11/26 01:55:46;;;;;;;48.70;24.80;;;6.40;99.90;;;;;;5072692;28;20424;-72
2021/11/26 01:58:12;;;;;;;35.93;22.23;;;6.40;99.90;;;;;;5071536;28;20276;-72
2021/11/26 02:00:41;;;;;;;39.53;22.53;;;6.40;99.90;;;;;;5087522;28;20618;-72
2021/11/26 02:03:06;;;;;;;35.27;22.03;;;6.40;99.90;;;;;;5090726;28;20180;-72
2021/11/26 02:05:32;;;;;;;33.67;18.90;;;6.40;99.90;;;;;;5089780;28;20438;-72
2021/11/26 02:07:57;;;;;;;38.60;20.20;;;6.30;99.90;;;;;;5084925;28;20665;-72
2021/11/26 02:10:23;;;;;;;37.43;20.73;;;6.30;99.90;;;;;;5080107;28;20193;-72
2021/11/26 02:12:49;;;;;;;34.13;18.07;;;6.30;99.90;;;;;;5077062;28;20184;-72
2021/11/26 02:15:24;;;;;;;30.50;18.50;;;6.20;99.90;;;;;;5071278;28;20415;-72
2021/11/26 02:17:50;;;;;;;28.60;18.30;;;6.20;99.90;;;;;;5091112;28;20188;-72
2021/11/26 02:20:19;;;;;;;30.27;19.30;;;6.20;99.90;;;;;;5091135;28;20431;-72
2021/11/26 02:22:45;;;;;;;32.73;20.83;;;6.10;99.90;;;;;;5091692;28;20422;-72
2021/11/26 02:25:11;;;;;;;37.27;18.83;;;6.20;99.90;;;;;;5091500;28;20904;-72
2021/11/26 02:27:37;;;;;;;33.80;19.60;;;6.20;99.90;;;;;;5089304;28;20451;-72
2021/11/26 02:30:18;;;;;;;35.97;20.10;;;6.20;99.90;;;;;;5091000;28;20688;-72
2021/11/26 02:32:58;;;;;;;39.20;22.37;;;6.20;99.90;;;;;;5090375;28;20407;-71
2021/11/26 02:35:26;;;;;;;31.80;21.57;;;6.30;99.90;;;;;;5091317;28;20902;-72
2021/11/26 02:37:52;;;;;;;39.90;22.00;;;6.20;99.90;;;;;;5089067;28;20970;-71
2021/11/26 02:40:22;;;;;;;37.13;22.57;;;6.20;99.90;;;;;;5090173;28;20914;-71
2021/11/26 02:42:50;;;;;;;39.00;23.20;;;6.30;99.90;;;;;;5071431;28;20423;-71
2021/11/26 02:45:16;;;;;;;43.23;24.33;;;6.20;99.90;;;;;;5071115;28;20452;-72
2021/11/26 02:47:42;;;;;;;46.70;26.23;;;6.30;99.90;;;;;;5070754;28;20461;-72
2021/11/26 02:50:09;;;;;;;47.73;25.07;;;6.20;99.90;;;;;;5071070;28;20420;-72
2021/11/26 02:52:36;;;;;;;44.30;23.13;;;6.20;99.90;;;;;;5072190;28;20420;-72
2021/11/26 02:55:04;;;;;;;39.20;23.97;;;6.30;99.90;;;;;;5071006;28;20862;-72
2021/11/26 02:57:29;;;;;;;38.70;22.93;;;6.20;99.90;;;;;;5070760;28;20424;-72
2021/11/26 02:59:55;;;;;;;39.40;25.40;;;6.30;99.90;;;;;;5070867;28;20424;-72
2021/11/26 03:02:20;;;;;;;50.60;26.93;;;6.10;99.90;;;;;;5071717;28;20224;-72
2021/11/26 03:04:46;;;;;;;48.70;25.70;;;6.10;99.90;;;;;;5071129;28;20181;-72
2021/11/26 03:07:12;;;;;;;42.80;24.43;;;6.10;99.90;;;;;;5071002;28;20201;-72
2021/11/26 03:09:38;;;;;;;39.40;25.00;;;6.20;99.90;;;;;;5074677;28;20184;-71
2021/11/26 03:12:05;;;;;;;44.10;24.00;;;6.30;99.90;;;;;;5075999;28;20201;-71
2021/11/26 03:14:31;;;;;;;45.83;23.40;;;6.30;99.90;;;;;;5075037;28;20419;-72
2021/11/26 03:16:57;;;;;;;40.60;23.47;;;6.30;99.90;;;;;;5074205;28;20828;-73
2021/11/26 03:19:23;;;;;;;41.83;25.10;;;6.30;99.90;;;;;;5074437;28;20419;-72
2021/11/26 03:21:48;;;;;;;40.90;24.17;;;6.30;99.90;;;;;;5074474;28;20202;-72
2021/11/26 03:24:14;;;;;;;42.77;25.07;;;6.20;99.90;;;;;;5075800;28;20488;-71
2021/11/26 03:26:40;;;;;;;45.13;26.10;;;6.30;99.90;;;;;;5074145;28;20201;-72
2021/11/26 03:29:05;;;;;;;47.40;25.60;;;6.30;99.90;;;;;;5087196;28;20185;-71
2021/11/26 03:31:31;;;;;;;41.07;25.07;;;6.40;99.90;;;;;;5094308;28;20200;-72
2021/11/26 03:33:57;;;;;;;39.40;24.83;;;6.40;99.90;;;;;;5081683;28;20181;-72
2021/11/26 03:36:22;;;;;;;39.97;25.10;;;6.40;99.90;;;;;;5074660;28;20213;-72
2021/11/26 03:38:48;;;;;;;40.60;25.53;;;6.50;99.90;;;;;;5074578;28;20211;-72
2021/11/26 03:41:14;;;;;;;44.40;25.63;;;6.50;99.90;;;;;;5087988;28;20204;-71
2021/11/26 03:43:40;;;;;;;44.27;24.70;;;6.30;99.90;;;;;;5093728;28;20590;-72
2021/11/26 03:46:05;;;;;;;48.37;26.77;;;6.40;99.90;;;;;;5093034;28;20679;-72
2021/11/26 03:48:31;;;;;;;45.70;25.87;;;6.30;99.90;;;;;;5094341;28;20175;-72
2021/11/26 03:50:57;;;;;;;38.70;25.27;;;6.30;99.90;;;;;;5093770;28;20197;-72
2021/11/26 03:53:22;;;;;;;39.63;26.93;;;6.20;99.90;;;;;;5094410;28;20208;-72
2021/11/26 03:55:48;;;;;;;42.00;25.77;;;6.20;99.90;;;;;;5091694;28;20183;-72
2021/11/26 03:58:14;;;;;;;44.73;25.17;;;6.20;99.90;;;;;;5093666;28;20264;-72
2021/11/26 04:00:40;;;;;;;44.83;26.80;;;6.20;99.90;;;;;;5093712;28;20212;-72
2021/11/26 04:03:05;;;;;;;40.57;25.30;;;6.00;99.90;;;;;;5093985;28;20480;-72
2021/11/26 04:05:31;;;;;;;39.73;24.70;;;5.90;99.90;;;;;;5091914;28;20931;-72
2021/11/26 04:07:57;;;;;;;37.47;24.30;;;5.90;99.90;;;;;;5093711;28;20200;-72
2021/11/26 04:10:23;;;;;;;37.83;25.27;;;5.90;99.90;;;;;;5093138;28;20279;-72
2021/11/26 04:12:50;;;;;;;37.40;25.03;;;5.90;99.90;;;;;;5093830;28;20430;-72
2021/11/26 04:15:16;;;;;;;39.20;24.33;;;5.80;99.90;;;;;;5093557;28;20597;-72
2021/11/26 04:17:45;;;;;;;39.47;24.93;;;5.80;99.90;;;;;;5085906;28;20459;-72
2021/11/26 04:20:11;;;;;;;36.60;24.07;;;5.80;99.90;;;;;;5087610;28;20761;-72
2021/11/26 04:22:37;;;;;;;40.80;25.30;;;5.90;99.90;;;;;;5078455;28;20530;-72
2021/11/26 04:25:03;;;;;;;40.77;25.70;;;5.80;99.90;;;;;;5093701;28;20406;-72
2021/11/26 04:27:29;;;;;;;36.50;23.90;;;5.80;99.90;;;;;;5093228;28;20495;-73
2021/11/26 04:29:55;;;;;;;37.60;24.50;;;5.80;99.90;;;;;;5093185;28;20425;-72
2021/11/26 04:32:20;;;;;;;38.20;23.30;;;5.80;99.90;;;;;;5092550;28;20219;-72
2021/11/26 04:34:46;;;;;;;44.23;24.03;;;5.80;99.90;;;;;;5091855;28;20177;-72
2021/11/26 04:37:11;;;;;;;36.73;23.13;;;5.90;99.90;;;;;;5092965;28;20192;-73
2021/11/26 04:39:37;;;;;;;35.40;23.97;;;5.90;99.90;;;;;;5093008;28;20287;-72
2021/11/26 04:42:03;;;;;;;33.30;21.77;;;5.80;99.90;;;;;;5078022;28;20849;-72
2021/11/26 04:44:29;;;;;;;31.40;22.80;;;5.90;99.90;;;;;;5076409;28;20177;-72
2021/11/26 04:46:54;;;;;;;33.87;22.90;;;5.90;99.90;;;;;;5092805;28;20861;-72
2021/11/26 04:49:20;;;;;;;35.37;23.13;;;6.00;99.90;;;;;;5093132;28;20603;-72
2021/11/26 04:51:46;;;;;;;37.63;21.90;;;6.00;99.90;;;;;;5088871;28;20188;-73
2021/11/26 04:54:11;;;;;;;31.60;20.60;;;5.90;99.90;;;;;;5092808;28;20734;-73
2021/11/26 04:56:37;;;;;;;32.40;21.57;;;5.90;99.90;;;;;;5092594;28;20185;-73
2021/11/26 04:59:02;;;;;;;33.23;21.30;;;6.00;99.90;;;;;;5092825;28;20180;-72
2021/11/26 05:01:28;;;;;;;33.00;22.10;;;6.00;99.90;;;;;;5097439;22;20313;-70
2021/11/26 05:03:54;;;;;;;40.27;22.70;;;6.00;99.90;;;;;;5046566;28;20600;-70
2021/11/26 05:06:19;;;;;;;31.43;20.10;;;5.90;99.90;;;;;;5032656;28;20199;-69
2021/11/26 05:08:45;;;;;;;28.63;20.10;;;5.90;99.90;;;;;;5033781;28;20167;-69
2021/11/26 05:11:11;;;;;;;28.07;19.00;;;5.90;99.90;;;;;;5050806;28;20445;-69
2021/11/26 05:13:47;;;;;;;30.03;19.17;;;5.80;99.90;;;;;;5060869;28;20427;-69
2021/11/26 05:16:14;;;;;;;28.97;19.03;;;5.70;99.90;;;;;;5071135;28;20436;-69
2021/11/26 05:18:41;;;;;;;25.40;19.30;;;5.70;99.90;;;;;;5072747;28;20897;-69
2021/11/26 05:21:07;;;;;;;25.10;17.80;;;5.80;99.90;;;;;;5059009;28;20869;-69
2021/11/26 05:23:33;;;;;;;26.97;18.00;;;5.80;99.90;;;;;;5054960;28;20424;-69
2021/11/26 05:25:58;;;;;;;25.57;16.43;;;5.80;99.90;;;;;;5052141;28;20412;-68
2021/11/26 05:28:26;;;;;;;18.90;14.03;;;5.80;99.90;;;;;;5052626;28;20726;-69
2021/11/26 05:30:52;;;;;;;17.60;13.27;;;5.80;99.90;;;;;;5031898;28;20200;-68
2021/11/26 05:33:17;;;;;;;18.57;13.83;;;5.80;99.90;;;;;;5054225;28;20425;-68
2021/11/26 05:35:43;;;;;;;19.40;13.00;;;5.70;99.90;;;;;;5052620;28;20419;-68
2021/11/26 05:38:08;;;;;;;16.40;12.37;;;5.70;99.90;;;;;;5044029;28;20177;-69
2021/11/26 05:40:34;;;;;;;14.53;10.47;;;5.70;99.90;;;;;;5046798;28;20182;-69
2021/11/26 05:43:00;;;;;;;15.83;11.07;;;5.70;99.90;;;;;;5060251;28;20170;-69
2021/11/26 05:45:26;;;;;;;15.93;11.30;;;5.70;99.90;;;;;;5054962;28;20427;-69
2021/11/26 05:47:52;;;;;;;13.60;10.33;;;5.70;99.90;;;;;;5057675;28;20457;-69
2021/11/26 05:50:19;;;;;;;15.23;11.13;;;5.70;99.90;;;;;;5053235;28;20182;-69
2021/11/26 05:52:45;;;;;;;12.20;10.13;;;5.60;99.90;;;;;;5063369;28;20189;-69
2021/11/26 05:55:14;;;;;;;12.50;9.47;;;5.70;99.90;;;;;;5052172;28;20443;-69
2021/11/26 05:57:40;;;;;;;11.57;9.47;;;5.60;99.90;;;;;;5053830;28;20987;-69
2021/11/26 06:00:10;;;;;;;12.73;9.93;;;5.60;99.90;;;;;;5052602;28;20510;-69
2021/11/26 06:02:36;;;;;;;11.90;8.90;;;5.70;99.90;;;;;;5050788;28;20995;-69
2021/11/26 06:05:02;;;;;;;10.03;8.40;;;5.70;99.90;;;;;;5051314;28;20894;-69
2021/11/26 06:07:28;;;;;;;9.63;7.70;;;5.70;99.90;;;;;;5036119;28;20480;-69
2021/11/26 06:09:53;;;;;;;9.57;6.73;;;5.70;99.90;;;;;;5041084;28;20614;-69
2021/11/26 06:12:19;;;;;;;8.77;7.50;;;5.70;99.90;;;;;;5045427;28;20329;-69
2021/11/26 06:14:44;;;;;;;9.37;7.80;;;5.60;99.90;;;;;;5046395;28;20676;-69
2021/11/26 06:17:10;;;;;;;12.90;7.03;;;5.60;99.90;;;;;;5049655;28;20360;-68
2021/11/26 06:19:36;;;;;;;10.47;8.10;;;5.70;99.90;;;;;;5045418;28;20283;-68
2021/11/26 06:22:01;;;;;;;8.93;7.10;;;5.70;99.90;;;;;;5044997;28;20215;-69
2021/11/26 06:24:27;;;;;;;10.60;8.03;;;5.70;99.90;;;;;;5044879;28;20564;-68
2021/11/26 06:26:53;;;;;;;9.70;7.30;;;5.60;99.90;;;;;;5047005;28;20475;-68
2021/11/26 06:29:19;;;;;;;8.27;7.37;;;5.60;99.90;;;;;;5045895;28;20202;-71
2021/11/26 06:31:44;;;;;;;7.30;6.60;;;5.70;99.90;;;;;;5046917;28;20548;-69
2021/11/26 06:34:10;;;;;;;10.63;7.60;;;5.80;99.90;;;;;;5044008;28;20249;-68
2021/11/26 06:36:37;;;;;;;8.65;7.75;;;5.80;99.90;;;;;;5044938;28;20420;-68
2021/11/26 06:39:04;;;;;;;8.73;7.40;;;5.90;99.90;;;;;;5049872;28;20620;-69
2021/11/26 06:41:29;;;;;;;8.10;7.30;;;5.90;99.90;;;;;;5052086;28;20496;-69
2021/11/26 06:43:55;;;;;;;8.13;6.57;;;6.00;99.90;;;;;;5036094;28;20457;-69
2021/11/26 06:46:20;;;;;;;7.97;7.17;;;6.00;99.90;;;;;;5054493;28;20618;-68
2021/11/26 06:48:46;;;;;;;10.57;7.90;;;6.10;99.90;;;;;;5036373;28;20341;-69
2021/11/26 06:51:12;;;;;;;8.20;6.63;;;6.00;99.90;;;;;;5056275;28;20264;-68
2021/11/26 06:53:37;;;;;;;7.50;6.73;;;5.90;99.90;;;;;;5057789;28;20633;-69
2021/11/26 06:56:03;;;;;;;8.43;7.63;;;6.00;99.90;;;;;;5059510;28;20776;-69
2021/11/26 06:58:29;;;;;;;9.17;8.17;;;5.90;99.90;;;;;;5058191;28;20227;-69
2021/11/26 07:00:55;;;;;;;9.20;7.50;;;5.90;99.90;;;;;;5057326;28;20478;-69
2021/11/26 07:03:20;;;;;;;10.00;8.13;;;5.80;99.90;;;;;;5041450;28;20233;-68
2021/11/26 07:05:46;;;;;;;8.33;7.30;;;5.80;99.90;;;;;;5035238;28;20206;-69
2021/11/26 07:08:11;;;;;;;8.90;8.00;;;5.90;99.90;;;;;;5043309;28;20205;-67
2021/11/26 07:10:37;;;;;;;9.10;7.40;;;5.90;99.90;;;;;;5059324;28;20182;-69
2021/11/26 07:13:03;;;;;;;10.80;8.90;;;5.90;99.90;;;;;;5036889;28;20186;-69
2021/11/26 07:15:28;;;;;;;10.33;8.77;;;5.90;99.90;;;;;;5035408;28;20566;-68
2021/11/26 07:17:54;;;;;;;10.87;8.80;;;6.00;99.90;;;;;;5035577;28;20690;-68
2021/11/26 07:20:21;;;;;;;9.57;8.20;;;6.00;99.90;;;;;;5035701;28;20179;-70
2021/11/26 07:22:47;;;;;;;9.47;8.20;;;6.00;99.90;;;;;;5037338;28;20543;-68
2021/11/26 07:25:13;;;;;;;9.43;7.83;;;5.90;99.90;;;;;;5047702;28;20436;-69
2021/11/26 07:27:38;;;;;;;10.97;8.80;;;5.90;99.90;;;;;;5016580;28;20207;-69
2021/11/26 07:30:06;;;;;;;9.80;7.83;;;5.80;99.90;;;;;;5034805;28;20507;-69
2021/11/26 07:32:31;;;;;;;9.97;8.40;;;5.90;99.90;;;;;;5034826;28;20242;-69
2021/11/26 07:34:57;;;;;;;10.30;8.13;;;5.90;99.90;;;;;;5036037;28;20527;-67
2021/11/26 07:37:25;;;;;;;11.67;8.67;;;5.90;99.90;;;;;;5034637;28;20175;-68
2021/11/26 07:39:52;;;;;;;9.50;7.73;;;5.90;99.90;;;;;;5035205;28;20185;-68
2021/11/26 07:42:18;;;;;;;9.57;7.80;;;6.00;99.90;;;;;;5034746;28;20536;-68
2021/11/26 07:44:43;;;;;;;9.00;7.33;;;5.90;99.90;;;;;;5036038;28;20528;-68
2021/11/26 07:47:12;;;;;;;8.83;6.87;;;5.90;99.90;;;;;;5034548;28;20214;-68
2021/11/26 07:49:38;;;;;;;12.17;7.70;;;5.90;99.90;;;;;;5034431;28;20410;-69
2021/11/26 07:52:05;;;;;;;9.93;8.03;;;5.80;99.90;;;;;;5034827;28;20425;-69
2021/11/26 07:54:32;;;;;;;9.67;7.17;;;5.80;99.90;;;;;;5035392;28;21785;-69
2021/11/26 07:56:57;;;;;;;7.67;6.27;;;5.90;99.90;;;;;;5034703;28;20505;-69
2021/11/26 07:59:25;;;;;;;7.90;6.23;;;5.80;99.90;;;;;;5051200;28;20430;-68
2021/11/26 08:01:52;;;;;;;7.90;6.20;;;5.70;99.90;;;;;;5047334;28;20849;-68
2021/11/26 08:04:18;;;;;;;8.63;6.60;;;5.70;99.90;;;;;;5074513;28;20837;-68
2021/11/26 08:06:46;;;;;;;7.87;7.17;;;5.80;99.90;;;;;;5048929;28;20551;-67
2021/11/26 08:09:13;;;;;;;9.10;7.50;;;5.90;99.90;;;;;;5074425;28;20844;-69
2021/11/26 08:11:40;;;;;;;8.20;7.07;;;5.90;99.90;;;;;;5066269;28;20469;-67
2021/11/26 08:14:05;;;;;;;9.57;8.13;;;5.90;99.90;;;;;;5074122;28;20768;-68
2021/11/26 08:16:31;;;;;;;11.80;8.40;;;6.00;99.90;;;;;;5072336;28;20462;-67
2021/11/26 08:18:56;;;;;;;10.63;8.27;;;5.90;99.90;;;;;;5073881;28;20269;-69
2021/11/26 08:21:22;;;;;;;9.33;8.40;;;5.90;99.90;;;;;;5074305;28;20201;-69
2021/11/26 08:23:48;;;;;;;9.83;7.80;;;5.90;99.90;;;;;;5074480;28;20638;-68
2021/11/26 08:26:13;;;;;;;7.97;7.20;;;5.90;99.90;;;;;;5074036;28;20254;-68
2021/11/26 08:28:39;;;;;;;9.40;7.47;;;5.80;99.90;;;;;;5072225;28;20268;-69
2021/11/26 08:31:05;;;;;;;8.27;7.47;;;5.90;99.90;;;;;;5053968;28;20516;-69
2021/11/26 08:33:30;;;;;;;10.80;8.77;;;5.90;99.90;;;;;;5054135;28;20170;-70
2021/11/26 08:35:56;;;;;;;10.23;8.07;;;5.80;99.90;;;;;;5053523;28;20180;-69
2021/11/26 08:38:22;;;;;;;12.23;8.40;;;5.70;99.90;;;;;;5053135;28;20178;-69
2021/11/26 08:40:48;;;;;;;12.10;8.83;;;5.70;99.90;;;;;;5054775;28;20178;-69
2021/11/26 08:43:14;;;;;;;9.90;8.90;;;5.80;99.90;;;;;;5053484;28;20409;-69
2021/11/26 08:45:40;;;;;;;12.77;9.33;;;5.80;99.90;;;;;;5053257;28;20420;-69
2021/11/26 08:48:06;;;;;;;16.03;10.40;;;5.90;99.90;;;;;;5053287;28;20217;-69
2021/11/26 08:50:34;;;;;;;14.97;10.70;;;5.80;99.90;;;;;;5053345;28;20209;-69
2021/11/26 08:53:02;;;;;;;23.53;11.47;;;5.90;99.90;;;;;;5055225;28;20921;-68
2021/11/26 08:55:27;;;;;;;17.40;11.13;;;5.80;99.90;;;;;;5061782;28;20474;-69
2021/11/26 08:57:54;;;;;;;13.50;11.80;;;5.80;99.90;;;;;;5073305;28;20924;-69
2021/11/26 09:00:23;;;;;;;19.67;12.60;;;5.70;99.90;;;;;;5053230;28;20496;-68
2021/11/26 09:02:49;;;;;;;15.43;12.43;;;5.80;99.90;;;;;;5053294;28;20464;-68
2021/11/26 09:05:15;;;;;;;20.93;11.90;;;5.80;99.90;;;;;;5052623;28;20413;-69
2021/11/26 09:07:44;;;;;;;20.90;12.67;;;5.80;99.90;;;;;;5053188;28;20281;-69
2021/11/26 09:10:09;;;;;;;18.63;12.33;;;5.90;99.90;;;;;;5035306;28;20508;-69
2021/11/26 09:12:35;;;;;;;16.50;11.13;;;5.90;99.90;;;;;;5071103;28;20522;-68
2021/11/26 09:15:00;;;;;;;19.90;12.07;;;5.90;99.90;;;;;;5072977;28;20173;-69
2021/11/26 09:17:26;;;;;;;21.83;11.30;;;6.00;99.90;;;;;;5072813;28;20185;-69
2021/11/26 09:19:52;;;;;;;17.57;12.70;;;6.00;99.90;;;;;;5073089;28;20181;-69
2021/11/26 09:22:17;;;;;;;20.03;12.27;;;6.00;99.90;;;;;;5054611;28;20731;-69
2021/11/26 09:24:43;;;;;;;22.27;12.50;;;6.10;99.90;;;;;;5059183;28;20232;-69
2021/11/26 09:27:08;;;;;;;17.53;10.60;;;6.20;99.90;;;;;;5056205;28;20612;-70
2021/11/26 09:29:34;;;;;;;20.00;11.77;;;6.20;99.90;;;;;;5072544;28;20208;-70
2021/11/26 09:32:01;;;;;;;14.30;10.13;;;6.10;99.90;;;;;;5073357;28;20300;-70
2021/11/26 09:34:27;;;;;;;15.20;11.20;;;6.10;99.90;;;;;;5073368;28;20157;-69
2021/11/26 09:36:53;;;;;;;15.43;8.90;;;6.00;99.90;;;;;;5072994;28;20435;-69
2021/11/26 09:39:18;;;;;;;19.07;9.93;;;6.00;99.90;;;;;;5056310;28;20443;-68
2021/11/26 09:41:45;;;;;;;16.63;8.63;;;6.00;99.90;;;;;;5073591;28;20232;-69
2021/11/26 09:44:13;;;;;;;11.53;8.63;;;6.10;99.90;;;;;;5073230;28;20184;-68
2021/11/26 09:46:40;;;;;;;21.17;10.03;;;6.10;99.90;;;;;;5072864;28;20447;-68
2021/11/26 09:49:07;;;;;;;15.57;8.10;;;6.20;99.90;;;;;;5073355;28;20530;-69
2021/11/26 09:51:34;;;;;;;17.13;8.53;;;6.20;99.90;;;;;;5073104;28;21002;-71
2021/11/26 09:54:00;;;;;;;12.40;10.00;;;6.20;99.90;;;;;;5074565;28;20411;-70
2021/11/26 09:56:25;;;;;;;18.80;9.07;;;6.10;99.90;;;;;;5075101;28;20418;-69
2021/11/26 09:58:51;;;;;;;23.40;9.67;;;6.10;99.90;;;;;;5075351;28;20174;-70
2021/11/26 10:01:17;;;;;;;15.00;8.03;;;6.10;99.90;;;;;;5082457;28;20218;-69
2021/11/26 10:03:46;;;;;;;18.43;8.73;;;6.00;99.90;;;;;;5066128;28;20173;-69
2021/11/26 10:06:22;;;;;;;13.50;9.03;;;6.10;99.90;;;;;;5083476;28;20180;-70
2021/11/26 10:08:55;;;;;;;14.00;8.67;;;6.10;99.90;;;;;;5078068;28;20490;-68
2021/11/26 10:11:29;;;;;;;13.20;8.80;;;6.00;99.90;;;;;;5055557;28;20434;-68
2021/11/26 10:13:56;;;;;;;16.53;9.90;;;6.10;99.90;;;;;;5073856;28;20411;-69
2021/11/26 10:16:22;;;;;;;14.93;9.27;;;6.20;99.90;;;;;;5073565;28;20853;-68
2021/11/26 10:18:50;;;;;;;14.03;9.93;;;6.20;99.90;;;;;;5074771;28;20509;-69
2021/11/26 10:21:17;;;;;;;14.63;9.50;;;6.20;99.90;;;;;;5076950;28;20447;-69
2021/11/26 10:23:49;;;;;;;13.80;9.93;;;6.20;99.90;;;;;;5075278;28;20486;-68
2021/11/26 10:26:16;;;;;;;16.73;9.00;;;6.20;99.90;;;;;;5076081;28;20892;-69
2021/11/26 10:28:50;;;;;;;17.90;10.10;;;6.10;99.90;;;;;;5076989;28;20434;-69
2021/11/26 10:31:25;;;;;;;12.90;9.27;;;6.20;99.90;;;;;;5077999;28;20483;-69
2021/11/26 10:33:56;;;;;;;19.97;8.90;;;6.20;99.90;;;;;;5075171;28;20399;-69
2021/11/26 10:36:22;;;;;;;14.53;8.47;;;6.20;99.90;;;;;;5072000;28;20919;-69
2021/11/26 10:38:48;;;;;;;10.30;7.50;;;6.20;99.90;;;;;;5071685;28;20403;-68
2021/11/26 10:41:18;;;;;;;12.90;8.70;;;6.20;99.90;;;;;;5063446;28;20527;-69
2021/11/26 10:49:32;;;;;;;15.93;8.27;;;6.20;99.90;;;;;;5051677;28;20928;-69
2021/11/26 10:52:23;;;;;;;12.20;7.60;;;6.20;99.90;;;;;;5052280;28;20429;-69
2021/11/26 11:00:08;;;;;;;16.57;9.63;;;6.00;99.90;;;;;;5053772;28;20424;-70
2021/11/26 11:02:39;;;;;;;16.80;9.07;;;6.00;99.90;;;;;;5034047;28;20708;-68
2021/11/26 11:05:09;;;;;;;21.80;11.50;;;6.10;99.90;;;;;;5051723;28;20758;-68
2021/11/26 11:07:40;;;;;;;20.03;10.60;;;6.10;99.90;;;;;;5051851;28;20486;-69
2021/11/26 11:10:07;;;;;;;14.00;9.70;;;6.20;99.90;;;;;;5035929;28;20825;-68
2021/11/26 11:12:36;;;;;;;14.87;9.30;;;6.30;99.90;;;;;;5071596;28;20561;-69
2021/11/26 11:15:05;;;;;;;18.43;11.43;;;6.20;99.90;;;;;;5072151;28;20404;-70
2021/11/26 11:17:31;;;;;;;15.13;9.93;;;6.10;99.90;;;;;;5053784;28;20416;-69
2021/11/26 11:20:08;;;;;;;14.50;10.00;;;6.20;99.90;;;;;;5053670;28;20935;-69
2021/11/26 11:22:35;;;;;;;19.53;10.97;;;6.30;99.90;;;;;;5071746;28;20193;-69
2021/11/26 11:25:00;;;;;;;15.73;9.60;;;6.30;99.90;;;;;;5071302;28;20407;-69
2021/11/26 11:27:28;;;;;;;13.30;10.00;;;6.30;99.90;;;;;;5061203;28;20459;-69
2021/11/26 11:29:54;;;;;;;14.73;9.70;;;6.50;99.90;;;;;;5054490;28;20701;-69
2021/11/26 11:32:19;;;;;;;13.33;9.00;;;6.50;99.90;;;;;;5055065;28;20459;-69
2021/11/26 11:34:47;;;;;;;13.97;9.23;;;6.50;99.90;;;;;;5055170;28;20216;-69
2021/11/26 11:37:18;;;;;;;18.23;9.63;;;6.60;99.90;;;;;;5054598;28;20170;-69
2021/11/26 11:39:52;;;;;;;15.13;9.37;;;6.60;99.90;;;;;;5036907;28;20409;-69
2021/11/26 11:42:24;;;;;;;12.53;7.83;;;6.60;99.90;;;;;;5055219;28;20481;-68
2021/11/26 11:44:56;;;;;;;14.10;7.90;;;6.70;99.90;;;;;;5055834;28;20424;-69
2021/11/26 11:47:24;;;;;;;11.90;7.07;;;6.60;99.90;;;;;;5054655;28;20457;-69
2021/11/26 11:49:50;;;;;;;15.73;8.63;;;6.70;99.90;;;;;;5055295;28;20412;-69
2021/11/26 11:52:16;;;;;;;13.17;7.37;;;6.70;99.90;;;;;;5054842;28;20427;-68
2021/11/26 11:54:47;;;;;;;12.43;6.03;;;6.70;99.90;;;;;;5055519;28;20415;-71
2021/11/26 11:57:26;;;;;;;13.00;7.70;;;6.80;99.90;;;;;;5058823;28;20176;-70
2021/11/26 12:00:06;;;;;;;14.20;7.67;;;6.80;99.90;;;;;;5056610;28;20421;-70
2021/11/26 12:02:31;;;;;;;13.43;6.83;;;6.80;99.90;;;;;;5075773;28;20458;-69
2021/11/26 12:04:57;;;;;;;14.80;6.43;;;6.80;99.90;;;;;;5075771;28;20399;-69
2021/11/26 12:07:31;;;;;;;10.70;6.63;;;6.80;99.90;;;;;;5074415;28;20198;-68
2021/11/26 12:10:13;;;;;;;10.47;6.37;;;6.70;99.90;;;;;;5074526;28;20625;-69
2021/11/26 12:12:53;;;;;;;11.77;6.70;;;6.60;99.90;;;;;;5074305;28;21058;-69
2021/11/26 12:15:28;;;;;;;11.23;7.20;;;6.60;99.90;;;;;;5074037;28;20448;-69
2021/11/26 12:18:07;;;;;;;8.23;5.60;;;6.60;99.90;;;;;;5055229;28;20423;-69
2021/11/26 12:20:34;;;;;;;10.13;5.73;;;6.70;99.90;;;;;;5054245;28;20424;-69
2021/11/26 12:23:14;;;;;;;16.27;6.40;;;6.70;99.90;;;;;;5053907;28;20412;-69
2021/11/26 12:26:05;;;;;;;8.03;5.13;;;6.70;99.90;;;;;;5054087;28;20385;-69
2021/11/26 12:28:49;;;;;;;11.20;5.60;;;6.80;99.90;;;;;;5053594;28;20448;-68
2021/11/26 12:31:15;;;;;;;7.30;4.47;;;6.60;99.90;;;;;;5053961;28;21066;-69
2021/11/26 12:33:41;;;;;;;5.00;4.50;;;6.70;99.90;;;;;;5054732;28;20474;-70
2021/11/26 12:36:15;;;;;;;4.63;3.60;;;6.70;99.90;;;;;;5053774;28;20481;-69
2021/11/26 12:38:43;;;;;;;9.10;4.60;;;6.80;99.90;;;;;;5053704;28;20187;-69
2021/11/26 12:41:10;;;;;;;5.10;3.40;;;6.80;99.90;;;;;;5060197;28;20820;-70
2021/11/26 12:43:45;;;;;;;8.60;4.17;;;6.90;99.90;;;;;;5074117;28;20896;-69
2021/11/26 12:46:22;;;;;;;5.20;3.23;;;6.70;99.90;;;;;;5073544;28;20410;-68
2021/11/26 12:51:46;;;;;;;5.53;3.67;;;6.60;99.90;;;;;;5073666;28;20427;-69
2021/11/26 12:54:51;;;;;;;5.83;3.00;;;6.60;99.90;;;;;;5073387;28;20705;-69
2021/11/26 12:57:25;;;;;;;6.10;3.87;;;6.60;99.90;;;;;;4952846;29;20500;-70